Hovedside
METAR-TAF:

METAR-TAF

Lufthavner :

Lakselv, Norge

Lakselv lufthavn. Banak

breddegrad: 70-04N, lengdegrad: 024-59E, høyde over havet: 0 m

Gjeldene værobservasjon

Denne rapporten ble laget for 30 minutter siden, klokken 13:20 UTC
Vind 3 kt fra Øst
Temperatur -16°C
Luftfuktighet 60%
Trykk 1047 hPa
Sikt 10 km eller mer
ingen skyer under 1500 m og ingen bygeskyer

METAR: ENNA 251320Z 08003KT CAVOK M16/M22 Q1047 RMK WIND 1800FT 27003KT

Tid: 14:50 (13:50 UTC)

Varsel

Varsel gyldig fra 25. klokken 12 UTC til 26. klokken 12 UTC
Vind 8 kt fra Sør
Sikt 10 km eller mer
Brutte skyer i en høyde av 4000 ft

TAF: ENNA 2512/2612 18008KT 9999 BKN040

Værobservasjoner og værvarsel for over 4000 flyplasser (METAR- og TAF-rapporter).

Tilgjengelige stasjoner er representert av de røde og gule prikkene på kartet.

Hold musepekeren over prikken for å se navnet på stasjonen.

Klikk så for å se værobservasjoner og -varsler.

For å forandre kartet kan du klikke på den grønne knappen med svart kryss for å zoome inn, på den grønne knappen med strek for å zoome ut, eller på de grønne pilene for å se tilstøtende kart.


METAR-TAF: